sensor_id;sensor_type;location;lat;lon;timestamp;temperature;humidity
4505;DHT22;2265;48.794;9.520;2022-11-15T00:01:09;9.20;98.00
4505;DHT22;2265;48.794;9.520;2022-11-15T00:03:36;9.20;98.00
4505;DHT22;2265;48.794;9.520;2022-11-15T00:06:04;9.30;98.00
4505;DHT22;2265;48.794;9.520;2022-11-15T00:08:31;9.20;98.00
4505;DHT22;2265;48.794;9.520;2022-11-15T00:11:00;9.30;98.00
4505;DHT22;2265;48.794;9.520;2022-11-15T00:13:27;9.30;98.00
4505;DHT22;2265;48.794;9.520;2022-11-15T00:15:59;9.40;98.00
4505;DHT22;2265;48.794;9.520;2022-11-15T00:18:26;9.40;98.00
4505;DHT22;2265;48.794;9.520;2022-11-15T00:20:53;9.30;98.00
4505;DHT22;2265;48.794;9.520;2022-11-15T00:23:20;9.30;98.00
4505;DHT22;2265;48.794;9.520;2022-11-15T00:25:55;9.30;98.00
4505;DHT22;2265;48.794;9.520;2022-11-15T00:28:23;9.50;98.00
4505;DHT22;2265;48.794;9.520;2022-11-15T00:30:50;9.60;98.00
4505;DHT22;2265;48.794;9.520;2022-11-15T00:33:18;9.70;98.00
4505;DHT22;2265;48.794;9.520;2022-11-15T00:35:46;9.70;98.00
4505;DHT22;2265;48.794;9.520;2022-11-15T00:38:13;9.60;98.00
4505;DHT22;2265;48.794;9.520;2022-11-15T00:40:40;9.60;98.00
4505;DHT22;2265;48.794;9.520;2022-11-15T00:43:08;9.60;98.00
4505;DHT22;2265;48.794;9.520;2022-11-15T00:45:35;9.50;98.00
4505;DHT22;2265;48.794;9.520;2022-11-15T00:48:02;9.40;98.00
4505;DHT22;2265;48.794;9.520;2022-11-15T00:50:30;9.40;98.00
4505;DHT22;2265;48.794;9.520;2022-11-15T00:53:01;9.30;98.00
4505;DHT22;2265;48.794;9.520;2022-11-15T00:55:28;9.30;98.00
4505;DHT22;2265;48.794;9.520;2022-11-15T00:57:55;9.30;98.00
4505;DHT22;2265;48.794;9.520;2022-11-15T01:00:22;9.30;98.00
4505;DHT22;2265;48.794;9.520;2022-11-15T01:02:49;9.30;98.00
4505;DHT22;2265;48.794;9.520;2022-11-15T01:05:16;9.20;98.00
4505;DHT22;2265;48.794;9.520;2022-11-15T01:07:45;9.10;98.00
4505;DHT22;2265;48.794;9.520;2022-11-15T01:10:13;9.20;98.00
4505;DHT22;2265;48.794;9.520;2022-11-15T01:12:40;9.20;98.00
4505;DHT22;2265;48.794;9.520;2022-11-15T01:15:08;9.20;98.00
4505;DHT22;2265;48.794;9.520;2022-11-15T01:17:36;9.10;98.00
4505;DHT22;2265;48.794;9.520;2022-11-15T01:20:05;9.00;98.00
4505;DHT22;2265;48.794;9.520;2022-11-15T01:22:32;8.90;98.00
4505;DHT22;2265;48.794;9.520;2022-11-15T01:25:00;9.00;98.00
4505;DHT22;2265;48.794;9.520;2022-11-15T01:27:27;8.90;98.00
4505;DHT22;2265;48.794;9.520;2022-11-15T01:29:56;8.90;98.00
4505;DHT22;2265;48.794;9.520;2022-11-15T01:32:23;8.90;98.00
4505;DHT22;2265;48.794;9.520;2022-11-15T01:34:50;8.90;98.00
4505;DHT22;2265;48.794;9.520;2022-11-15T01:37:17;9.00;98.00
4505;DHT22;2265;48.794;9.520;2022-11-15T01:39:44;8.90;98.00
4505;DHT22;2265;48.794;9.520;2022-11-15T01:42:13;8.90;98.00
4505;DHT22;2265;48.794;9.520;2022-11-15T01:44:42;8.70;98.00
4505;DHT22;2265;48.794;9.520;2022-11-15T01:47:13;8.70;98.00
4505;DHT22;2265;48.794;9.520;2022-11-15T01:49:46;8.60;98.00
4505;DHT22;2265;48.794;9.520;2022-11-15T01:52:18;8.40;98.00
4505;DHT22;2265;48.794;9.520;2022-11-15T01:54:47;8.30;98.00
4505;DHT22;2265;48.794;9.520;2022-11-15T01:57:16;8.30;98.00
4505;DHT22;2265;48.794;9.520;2022-11-15T01:59:44;8.30;98.00
4505;DHT22;2265;48.794;9.520;2022-11-15T02:02:12;8.30;98.00
4505;DHT22;2265;48.794;9.520;2022-11-15T02:04:41;8.30;98.00
4505;DHT22;2265;48.794;9.520;2022-11-15T02:07:10;8.20;98.00
4505;DHT22;2265;48.794;9.520;2022-11-15T02:09:38;8.10;98.00
4505;DHT22;2265;48.794;9.520;2022-11-15T02:12:07;8.10;98.00
4505;DHT22;2265;48.794;9.520;2022-11-15T02:14:38;8.10;98.00
4505;DHT22;2265;48.794;9.520;2022-11-15T02:17:18;8.10;98.00
4505;DHT22;2265;48.794;9.520;2022-11-15T02:20:21;8.10;98.00
4505;DHT22;2265;48.794;9.520;2022-11-15T02:26:07;8.20;98.00
4505;DHT22;2265;48.794;9.520;2022-11-15T02:28:46;8.10;98.00
4505;DHT22;2265;48.794;9.520;2022-11-15T02:31:22;8.00;98.00
4505;DHT22;2265;48.794;9.520;2022-11-15T02:33:57;7.90;98.00
4505;DHT22;2265;48.794;9.520;2022-11-15T02:36:35;7.90;98.00
4505;DHT22;2265;48.794;9.520;2022-11-15T02:39:07;7.80;98.00
4505;DHT22;2265;48.794;9.520;2022-11-15T02:41:42;7.80;98.00
4505;DHT22;2265;48.794;9.520;2022-11-15T02:44:14;7.80;98.00
4505;DHT22;2265;48.794;9.520;2022-11-15T02:46:46;7.80;98.00
4505;DHT22;2265;48.794;9.520;2022-11-15T02:49:33;7.70;98.00
4505;DHT22;2265;48.794;9.520;2022-11-15T02:52:01;7.70;98.00
4505;DHT22;2265;48.794;9.520;2022-11-15T02:54:30;7.70;98.00
4505;DHT22;2265;48.794;9.520;2022-11-15T02:57:01;7.70;98.00
4505;DHT22;2265;48.794;9.520;2022-11-15T03:05:18;7.80;98.00
4505;DHT22;2265;48.794;9.520;2022-11-15T03:07:52;7.70;98.00
4505;DHT22;2265;48.794;9.520;2022-11-15T03:10:24;7.60;98.00
4505;DHT22;2265;48.794;9.520;2022-11-15T03:12:56;7.60;98.00
4505;DHT22;2265;48.794;9.520;2022-11-15T03:15:27;7.60;98.00
4505;DHT22;2265;48.794;9.520;2022-11-15T03:18:00;7.60;98.00
4505;DHT22;2265;48.794;9.520;2022-11-15T03:20:29;7.60;98.00
4505;DHT22;2265;48.794;9.520;2022-11-15T03:23:02;7.60;98.00
4505;DHT22;2265;48.794;9.520;2022-11-15T03:25:32;7.70;98.00
4505;DHT22;2265;48.794;9.520;2022-11-15T03:28:02;7.80;98.00
4505;DHT22;2265;48.794;9.520;2022-11-15T03:30:33;7.80;98.00
4505;DHT22;2265;48.794;9.520;2022-11-15T03:33:04;7.70;98.00
4505;DHT22;2265;48.794;9.520;2022-11-15T03:35:35;7.70;98.00
4505;DHT22;2265;48.794;9.520;2022-11-15T03:38:08;7.70;98.00
4505;DHT22;2265;48.794;9.520;2022-11-15T03:40:39;7.70;98.00
4505;DHT22;2265;48.794;9.520;2022-11-15T03:43:12;7.70;98.00
4505;DHT22;2265;48.794;9.520;2022-11-15T03:45:46;7.70;98.00
4505;DHT22;2265;48.794;9.520;2022-11-15T03:48:20;7.60;98.00
4505;DHT22;2265;48.794;9.520;2022-11-15T03:50:48;7.70;98.00
4505;DHT22;2265;48.794;9.520;2022-11-15T03:53:17;7.70;98.00
4505;DHT22;2265;48.794;9.520;2022-11-15T03:55:45;7.70;98.00
4505;DHT22;2265;48.794;9.520;2022-11-15T03:58:12;7.70;98.00
4505;DHT22;2265;48.794;9.520;2022-11-15T04:00:40;7.70;98.00
4505;DHT22;2265;48.794;9.520;2022-11-15T04:03:07;7.70;98.00
4505;DHT22;2265;48.794;9.520;2022-11-15T04:05:36;7.70;98.00
4505;DHT22;2265;48.794;9.520;2022-11-15T04:08:03;7.80;98.00
4505;DHT22;2265;48.794;9.520;2022-11-15T04:10:30;7.90;98.00
4505;DHT22;2265;48.794;9.520;2022-11-15T04:12:57;7.90;98.00
4505;DHT22;2265;48.794;9.520;2022-11-15T04:15:24;7.80;98.00
4505;DHT22;2265;48.794;9.520;2022-11-15T04:17:53;7.70;98.00
4505;DHT22;2265;48.794;9.520;2022-11-15T04:20:22;7.70;98.00
4505;DHT22;2265;48.794;9.520;2022-11-15T04:23:11;7.70;98.00
4505;DHT22;2265;48.794;9.520;2022-11-15T04:25:58;7.60;98.00
4505;DHT22;2265;48.794;9.520;2022-11-15T04:28:26;7.60;98.00
4505;DHT22;2265;48.794;9.520;2022-11-15T04:30:53;7.60;98.00
4505;DHT22;2265;48.794;9.520;2022-11-15T04:33:21;7.60;98.00
4505;DHT22;2265;48.794;9.520;2022-11-15T04:35:49;7.60;98.00
4505;DHT22;2265;48.794;9.520;2022-11-15T04:38:31;7.70;98.00
4505;DHT22;2265;48.794;9.520;2022-11-15T04:40:58;7.60;98.00
4505;DHT22;2265;48.794;9.520;2022-11-15T04:43:25;7.60;98.00
4505;DHT22;2265;48.794;9.520;2022-11-15T04:45:53;7.60;98.00
4505;DHT22;2265;48.794;9.520;2022-11-15T04:48:20;7.60;98.00
4505;DHT22;2265;48.794;9.520;2022-11-15T04:50:48;7.60;98.00
4505;DHT22;2265;48.794;9.520;2022-11-15T04:53:15;7.60;98.00
4505;DHT22;2265;48.794;9.520;2022-11-15T04:55:46;7.60;98.00
4505;DHT22;2265;48.794;9.520;2022-11-15T04:58:13;7.70;98.00
4505;DHT22;2265;48.794;9.520;2022-11-15T05:00:40;7.70;98.00
4505;DHT22;2265;48.794;9.520;2022-11-15T05:03:09;7.70;98.00
4505;DHT22;2265;48.794;9.520;2022-11-15T05:05:53;7.70;98.00
4505;DHT22;2265;48.794;9.520;2022-11-15T05:08:21;7.70;98.00
4505;DHT22;2265;48.794;9.520;2022-11-15T05:10:50;7.70;98.00
4505;DHT22;2265;48.794;9.520;2022-11-15T05:13:17;7.80;98.00
4505;DHT22;2265;48.794;9.520;2022-11-15T05:15:44;7.80;98.00
4505;DHT22;2265;48.794;9.520;2022-11-15T05:18:11;7.90;98.00
4505;DHT22;2265;48.794;9.520;2022-11-15T05:20:38;7.90;98.00
4505;DHT22;2265;48.794;9.520;2022-11-15T05:23:05;7.90;98.00
4505;DHT22;2265;48.794;9.520;2022-11-15T05:25:32;7.90;98.00
4505;DHT22;2265;48.794;9.520;2022-11-15T05:28:01;7.80;98.00
4505;DHT22;2265;48.794;9.520;2022-11-15T05:30:28;7.80;98.00
4505;DHT22;2265;48.794;9.520;2022-11-15T05:32:55;7.80;98.00
4505;DHT22;2265;48.794;9.520;2022-11-15T05:35:29;7.90;98.00
4505;DHT22;2265;48.794;9.520;2022-11-15T05:37:57;7.90;98.00
4505;DHT22;2265;48.794;9.520;2022-11-15T05:40:25;7.80;98.00
4505;DHT22;2265;48.794;9.520;2022-11-15T05:42:52;7.70;98.00
4505;DHT22;2265;48.794;9.520;2022-11-15T05:45:21;7.70;98.00
4505;DHT22;2265;48.794;9.520;2022-11-15T05:47:48;7.60;98.00
4505;DHT22;2265;48.794;9.520;2022-11-15T05:50:18;7.60;98.00
4505;DHT22;2265;48.794;9.520;2022-11-15T05:52:46;7.60;98.00
4505;DHT22;2265;48.794;9.520;2022-11-15T05:55:14;7.50;98.00
4505;DHT22;2265;48.794;9.520;2022-11-15T05:57:43;7.50;98.00
4505;DHT22;2265;48.794;9.520;2022-11-15T06:00:11;7.50;98.00
4505;DHT22;2265;48.794;9.520;2022-11-15T06:02:41;7.50;98.00
4505;DHT22;2265;48.794;9.520;2022-11-15T06:05:08;7.50;98.00
4505;DHT22;2265;48.794;9.520;2022-11-15T06:07:35;7.50;98.00
4505;DHT22;2265;48.794;9.520;2022-11-15T06:10:03;7.50;98.00
4505;DHT22;2265;48.794;9.520;2022-11-15T06:12:30;7.50;98.00
4505;DHT22;2265;48.794;9.520;2022-11-15T06:14:57;7.40;98.00
4505;DHT22;2265;48.794;9.520;2022-11-15T06:17:24;7.30;98.00
4505;DHT22;2265;48.794;9.520;2022-11-15T06:19:53;7.40;98.00
4505;DHT22;2265;48.794;9.520;2022-11-15T06:22:22;7.40;98.00
4505;DHT22;2265;48.794;9.520;2022-11-15T06:24:49;7.20;98.00
4505;DHT22;2265;48.794;9.520;2022-11-15T06:27:16;7.10;98.00
4505;DHT22;2265;48.794;9.520;2022-11-15T06:29:43;7.20;98.00
4505;DHT22;2265;48.794;9.520;2022-11-15T06:32:10;7.30;98.00
4505;DHT22;2265;48.794;9.520;2022-11-15T06:34:37;7.30;98.00
4505;DHT22;2265;48.794;9.520;2022-11-15T06:37:06;7.20;98.00
4505;DHT22;2265;48.794;9.520;2022-11-15T06:39:33;7.30;98.00
4505;DHT22;2265;48.794;9.520;2022-11-15T06:42:00;7.10;98.00
4505;DHT22;2265;48.794;9.520;2022-11-15T06:44:27;7.00;98.00
4505;DHT22;2265;48.794;9.520;2022-11-15T06:46:54;7.00;98.00
4505;DHT22;2265;48.794;9.520;2022-11-15T06:49:21;6.80;98.00
4505;DHT22;2265;48.794;9.520;2022-11-15T06:51:49;6.90;98.00
4505;DHT22;2265;48.794;9.520;2022-11-15T06:54:17;7.00;98.00
4505;DHT22;2265;48.794;9.520;2022-11-15T06:56:45;7.00;98.00
4505;DHT22;2265;48.794;9.520;2022-11-15T06:59:12;7.00;98.00
4505;DHT22;2265;48.794;9.520;2022-11-15T07:01:40;6.90;98.00
4505;DHT22;2265;48.794;9.520;2022-11-15T07:04:07;7.00;98.00
4505;DHT22;2265;48.794;9.520;2022-11-15T07:06:34;7.00;98.00
4505;DHT22;2265;48.794;9.520;2022-11-15T07:09:02;7.10;98.00
4505;DHT22;2265;48.794;9.520;2022-11-15T07:11:32;7.10;98.00
4505;DHT22;2265;48.794;9.520;2022-11-15T07:13:59;7.00;98.00
4505;DHT22;2265;48.794;9.520;2022-11-15T07:16:28;6.90;98.00
4505;DHT22;2265;48.794;9.520;2022-11-15T07:18:56;6.90;98.00
4505;DHT22;2265;48.794;9.520;2022-11-15T07:21:23;6.80;98.00
4505;DHT22;2265;48.794;9.520;2022-11-15T07:23:50;6.80;98.00
4505;DHT22;2265;48.794;9.520;2022-11-15T07:26:17;6.90;98.00
4505;DHT22;2265;48.794;9.520;2022-11-15T07:28:45;6.80;98.00
4505;DHT22;2265;48.794;9.520;2022-11-15T07:31:13;6.80;98.00
4505;DHT22;2265;48.794;9.520;2022-11-15T07:33:40;6.80;98.00
4505;DHT22;2265;48.794;9.520;2022-11-15T07:36:09;7.00;98.00
4505;DHT22;2265;48.794;9.520;2022-11-15T07:38:36;6.90;98.00
4505;DHT22;2265;48.794;9.520;2022-11-15T07:41:06;7.00;98.00
4505;DHT22;2265;48.794;9.520;2022-11-15T07:43:33;7.10;98.00
4505;DHT22;2265;48.794;9.520;2022-11-15T07:46:06;7.30;98.00
4505;DHT22;2265;48.794;9.520;2022-11-15T07:48:34;7.50;98.00
4505;DHT22;2265;48.794;9.520;2022-11-15T07:51:02;7.60;98.00
4505;DHT22;2265;48.794;9.520;2022-11-15T07:53:29;7.60;98.00
4505;DHT22;2265;48.794;9.520;2022-11-15T07:55:58;7.70;98.00
4505;DHT22;2265;48.794;9.520;2022-11-15T07:58:26;7.70;98.00
4505;DHT22;2265;48.794;9.520;2022-11-15T08:00:53;7.80;98.00
4505;DHT22;2265;48.794;9.520;2022-11-15T08:03:22;7.80;98.00
4505;DHT22;2265;48.794;9.520;2022-11-15T08:05:51;7.70;98.00
4505;DHT22;2265;48.794;9.520;2022-11-15T08:08:18;7.70;98.00
4505;DHT22;2265;48.794;9.520;2022-11-15T08:10:45;7.80;98.00
4505;DHT22;2265;48.794;9.520;2022-11-15T08:13:13;7.80;98.00
4505;DHT22;2265;48.794;9.520;2022-11-15T08:15:40;7.90;98.00
4505;DHT22;2265;48.794;9.520;2022-11-15T08:18:10;8.00;98.00
4505;DHT22;2265;48.794;9.520;2022-11-15T08:20:40;8.10;98.00
4505;DHT22;2265;48.794;9.520;2022-11-15T08:23:07;8.30;98.00
4505;DHT22;2265;48.794;9.520;2022-11-15T08:25:36;8.50;98.00
4505;DHT22;2265;48.794;9.520;2022-11-15T08:28:04;8.70;98.00
4505;DHT22;2265;48.794;9.520;2022-11-15T08:30:35;8.80;98.00
4505;DHT22;2265;48.794;9.520;2022-11-15T08:33:03;9.00;98.00
4505;DHT22;2265;48.794;9.520;2022-11-15T08:35:30;9.30;98.00
4505;DHT22;2265;48.794;9.520;2022-11-15T08:37:59;9.50;98.00
4505;DHT22;2265;48.794;9.520;2022-11-15T08:40:27;9.60;98.00
4505;DHT22;2265;48.794;9.520;2022-11-15T08:43:00;9.60;98.00
4505;DHT22;2265;48.794;9.520;2022-11-15T08:45:28;9.70;98.00
4505;DHT22;2265;48.794;9.520;2022-11-15T08:48:01;9.80;98.00
4505;DHT22;2265;48.794;9.520;2022-11-15T08:50:30;9.80;98.00
4505;DHT22;2265;48.794;9.520;2022-11-15T08:53:05;9.90;98.00
4505;DHT22;2265;48.794;9.520;2022-11-15T08:55:35;10.00;98.00
4505;DHT22;2265;48.794;9.520;2022-11-15T08:58:03;10.20;98.00
4505;DHT22;2265;48.794;9.520;2022-11-15T09:00:31;10.30;98.00
4505;DHT22;2265;48.794;9.520;2022-11-15T09:02:58;10.30;98.00
4505;DHT22;2265;48.794;9.520;2022-11-15T09:05:25;10.50;98.00
4505;DHT22;2265;48.794;9.520;2022-11-15T09:07:53;10.60;98.00
4505;DHT22;2265;48.794;9.520;2022-11-15T09:10:22;10.60;98.00
4505;DHT22;2265;48.794;9.520;2022-11-15T09:12:49;10.60;98.00
4505;DHT22;2265;48.794;9.520;2022-11-15T09:15:17;10.70;98.00
4505;DHT22;2265;48.794;9.520;2022-11-15T09:17:45;10.70;98.00
4505;DHT22;2265;48.794;9.520;2022-11-15T09:20:12;10.70;98.00
4505;DHT22;2265;48.794;9.520;2022-11-15T09:22:40;10.70;98.00
4505;DHT22;2265;48.794;9.520;2022-11-15T09:25:08;10.70;98.00
4505;DHT22;2265;48.794;9.520;2022-11-15T09:27:37;10.90;98.00
4505;DHT22;2265;48.794;9.520;2022-11-15T09:30:05;10.80;98.00
4505;DHT22;2265;48.794;9.520;2022-11-15T09:32:32;10.90;98.00
4505;DHT22;2265;48.794;9.520;2022-11-15T09:34:59;11.10;98.00
4505;DHT22;2265;48.794;9.520;2022-11-15T09:37:26;11.20;98.00
4505;DHT22;2265;48.794;9.520;2022-11-15T09:39:53;11.40;98.00
4505;DHT22;2265;48.794;9.520;2022-11-15T09:42:37;11.50;98.00
4505;DHT22;2265;48.794;9.520;2022-11-15T09:45:17;11.50;98.00
4505;DHT22;2265;48.794;9.520;2022-11-15T09:48:00;11.70;98.00
4505;DHT22;2265;48.794;9.520;2022-11-15T09:50:34;11.90;98.00
4505;DHT22;2265;48.794;9.520;2022-11-15T09:53:02;11.90;98.00
4505;DHT22;2265;48.794;9.520;2022-11-15T09:55:37;11.90;98.00
4505;DHT22;2265;48.794;9.520;2022-11-15T09:58:18;12.00;98.00
4505;DHT22;2265;48.794;9.520;2022-11-15T10:00:49;12.00;98.00
4505;DHT22;2265;48.794;9.520;2022-11-15T10:03:24;12.10;98.00
4505;DHT22;2265;48.794;9.520;2022-11-15T10:05:56;12.10;98.00
4505;DHT22;2265;48.794;9.520;2022-11-15T10:08:31;12.20;98.00
4505;DHT22;2265;48.794;9.520;2022-11-15T10:11:02;12.20;98.00
4505;DHT22;2265;48.794;9.520;2022-11-15T10:13:35;12.30;98.00
4505;DHT22;2265;48.794;9.520;2022-11-15T10:16:09;12.40;98.00
4505;DHT22;2265;48.794;9.520;2022-11-15T10:18:47;12.50;98.00
4505;DHT22;2265;48.794;9.520;2022-11-15T10:21:20;12.50;98.00
4505;DHT22;2265;48.794;9.520;2022-11-15T10:23:49;12.70;98.00
4505;DHT22;2265;48.794;9.520;2022-11-15T10:26:17;12.80;98.00
4505;DHT22;2265;48.794;9.520;2022-11-15T10:28:46;12.90;98.00
4505;DHT22;2265;48.794;9.520;2022-11-15T10:31:24;13.00;98.00
4505;DHT22;2265;48.794;9.520;2022-11-15T10:33:59;13.10;98.00
4505;DHT22;2265;48.794;9.520;2022-11-15T10:36:31;13.30;98.00
4505;DHT22;2265;48.794;9.520;2022-11-15T10:39:04;13.50;98.00
4505;DHT22;2265;48.794;9.520;2022-11-15T10:41:39;13.60;98.00
4505;DHT22;2265;48.794;9.520;2022-11-15T10:44:26;13.70;98.00
4505;DHT22;2265;48.794;9.520;2022-11-15T10:50:03;13.80;98.00
4505;DHT22;2265;48.794;9.520;2022-11-15T10:52:35;14.00;98.00
4505;DHT22;2265;48.794;9.520;2022-11-15T10:55:21;14.00;98.00
4505;DHT22;2265;48.794;9.520;2022-11-15T10:57:51;14.10;98.00
4505;DHT22;2265;48.794;9.520;2022-11-15T11:00:33;14.20;98.00
4505;DHT22;2265;48.794;9.520;2022-11-15T11:03:02;14.30;98.00
4505;DHT22;2265;48.794;9.520;2022-11-15T11:05:31;14.40;98.00
4505;DHT22;2265;48.794;9.520;2022-11-15T11:08:02;14.50;98.00
4505;DHT22;2265;48.794;9.520;2022-11-15T11:10:30;14.50;98.00
4505;DHT22;2265;48.794;9.520;2022-11-15T11:13:12;14.60;98.00
4505;DHT22;2265;48.794;9.520;2022-11-15T11:15:44;14.70;98.00
4505;DHT22;2265;48.794;9.520;2022-11-15T11:18:21;14.80;98.00
4505;DHT22;2265;48.794;9.520;2022-11-15T11:20:58;14.80;98.00
4505;DHT22;2265;48.794;9.520;2022-11-15T11:23:42;14.80;98.00
4505;DHT22;2265;48.794;9.520;2022-11-15T11:26:19;14.80;98.00
4505;DHT22;2265;48.794;9.520;2022-11-15T11:28:57;15.00;98.00
4505;DHT22;2265;48.794;9.520;2022-11-15T11:31:35;15.00;98.00
4505;DHT22;2265;48.794;9.520;2022-11-15T11:34:15;14.90;98.00
4505;DHT22;2265;48.794;9.520;2022-11-15T11:36:50;15.00;98.00
4505;DHT22;2265;48.794;9.520;2022-11-15T11:39:26;15.00;98.00
4505;DHT22;2265;48.794;9.520;2022-11-15T11:42:03;14.90;98.00
4505;DHT22;2265;48.794;9.520;2022-11-15T11:44:40;14.90;98.00
4505;DHT22;2265;48.794;9.520;2022-11-15T11:47:11;14.90;98.00
4505;DHT22;2265;48.794;9.520;2022-11-15T11:49:46;14.90;98.00
4505;DHT22;2265;48.794;9.520;2022-11-15T11:52:20;15.00;98.00
4505;DHT22;2265;48.794;9.520;2022-11-15T11:54:57;15.00;98.00
4505;DHT22;2265;48.794;9.520;2022-11-15T11:57:33;15.10;98.00
4505;DHT22;2265;48.794;9.520;2022-11-15T12:00:04;15.10;98.00
4505;DHT22;2265;48.794;9.520;2022-11-15T12:02:36;15.10;98.00
4505;DHT22;2265;48.794;9.520;2022-11-15T12:05:11;15.20;98.00
4505;DHT22;2265;48.794;9.520;2022-11-15T12:07:40;15.20;98.00
4505;DHT22;2265;48.794;9.520;2022-11-15T12:10:18;15.20;98.00
4505;DHT22;2265;48.794;9.520;2022-11-15T12:12:52;15.30;98.00
4505;DHT22;2265;48.794;9.520;2022-11-15T12:15:23;15.40;98.00
4505;DHT22;2265;48.794;9.520;2022-11-15T12:17:54;15.50;98.00
4505;DHT22;2265;48.794;9.520;2022-11-15T12:20:23;15.50;98.00
4505;DHT22;2265;48.794;9.520;2022-11-15T12:22:55;15.60;98.00
4505;DHT22;2265;48.794;9.520;2022-11-15T12:25:29;15.80;98.00
4505;DHT22;2265;48.794;9.520;2022-11-15T12:28:02;15.90;98.00
4505;DHT22;2265;48.794;9.520;2022-11-15T12:30:43;16.20;98.00
4505;DHT22;2265;48.794;9.520;2022-11-15T12:33:32;16.20;98.00
4505;DHT22;2265;48.794;9.520;2022-11-15T12:36:09;16.40;98.00
4505;DHT22;2265;48.794;9.520;2022-11-15T12:39:04;16.50;98.00
4505;DHT22;2265;48.794;9.520;2022-11-15T12:41:36;16.40;98.00
4505;DHT22;2265;48.794;9.520;2022-11-15T12:44:09;16.30;98.00
4505;DHT22;2265;48.794;9.520;2022-11-15T12:47:00;16.20;98.00
4505;DHT22;2265;48.794;9.520;2022-11-15T12:49:46;16.00;98.00
4505;DHT22;2265;48.794;9.520;2022-11-15T12:52:15;16.00;98.00
4505;DHT22;2265;48.794;9.520;2022-11-15T12:55:28;15.90;98.00
4505;DHT22;2265;48.794;9.520;2022-11-15T12:58:26;15.90;98.00
4505;DHT22;2265;48.794;9.520;2022-11-15T13:00:54;15.70;98.00
4505;DHT22;2265;48.794;9.520;2022-11-15T13:03:26;15.60;98.00
4505;DHT22;2265;48.794;9.520;2022-11-15T13:08:55;15.60;98.00
4505;DHT22;2265;48.794;9.520;2022-11-15T13:11:42;15.50;98.00
4505;DHT22;2265;48.794;9.520;2022-11-15T13:14:38;15.50;98.00
4505;DHT22;2265;48.794;9.520;2022-11-15T13:20:15;15.40;98.00
4505;DHT22;2265;48.794;9.520;2022-11-15T13:22:46;15.40;98.00
4505;DHT22;2265;48.794;9.520;2022-11-15T13:25:33;15.40;98.00
4505;DHT22;2265;48.794;9.520;2022-11-15T13:28:11;15.40;98.00
4505;DHT22;2265;48.794;9.520;2022-11-15T13:30:49;15.40;98.00
4505;DHT22;2265;48.794;9.520;2022-11-15T13:33:18;15.50;98.00
4505;DHT22;2265;48.794;9.520;2022-11-15T13:35:50;15.40;98.00
4505;DHT22;2265;48.794;9.520;2022-11-15T13:38:25;15.40;98.00
4505;DHT22;2265;48.794;9.520;2022-11-15T13:40:52;15.40;98.00
4505;DHT22;2265;48.794;9.520;2022-11-15T13:43:28;15.30;98.00
4505;DHT22;2265;48.794;9.520;2022-11-15T13:46:06;15.30;98.00
4505;DHT22;2265;48.794;9.520;2022-11-15T13:48:33;15.30;98.00
4505;DHT22;2265;48.794;9.520;2022-11-15T13:51:02;15.30;98.00
4505;DHT22;2265;48.794;9.520;2022-11-15T13:53:33;15.30;98.00
4505;DHT22;2265;48.794;9.520;2022-11-15T13:56:02;15.20;98.00
4505;DHT22;2265;48.794;9.520;2022-11-15T13:58:30;15.20;98.00
4505;DHT22;2265;48.794;9.520;2022-11-15T14:01:01;15.20;98.00
4505;DHT22;2265;48.794;9.520;2022-11-15T14:03:30;15.20;98.00
4505;DHT22;2265;48.794;9.520;2022-11-15T14:06:10;15.20;98.00
4505;DHT22;2265;48.794;9.520;2022-11-15T14:08:40;15.20;98.00
4505;DHT22;2265;48.794;9.520;2022-11-15T14:11:12;15.20;98.00
4505;DHT22;2265;48.794;9.520;2022-11-15T14:13:40;15.20;98.00
4505;DHT22;2265;48.794;9.520;2022-11-15T14:16:18;15.10;98.00
4505;DHT22;2265;48.794;9.520;2022-11-15T14:18:47;15.10;98.00
4505;DHT22;2265;48.794;9.520;2022-11-15T14:21:15;15.10;98.00
4505;DHT22;2265;48.794;9.520;2022-11-15T14:23:44;15.10;98.00
4505;DHT22;2265;48.794;9.520;2022-11-15T14:26:29;15.10;98.00
4505;DHT22;2265;48.794;9.520;2022-11-15T14:28:57;15.00;98.00
4505;DHT22;2265;48.794;9.520;2022-11-15T14:31:24;15.00;98.00
4505;DHT22;2265;48.794;9.520;2022-11-15T14:33:52;14.90;98.00
4505;DHT22;2265;48.794;9.520;2022-11-15T14:36:20;14.80;98.00
4505;DHT22;2265;48.794;9.520;2022-11-15T14:38:49;14.70;98.00
4505;DHT22;2265;48.794;9.520;2022-11-15T14:41:20;14.70;98.00
4505;DHT22;2265;48.794;9.520;2022-11-15T14:43:49;14.70;98.00
4505;DHT22;2265;48.794;9.520;2022-11-15T14:46:17;14.70;98.00
4505;DHT22;2265;48.794;9.520;2022-11-15T14:48:45;14.70;98.00
4505;DHT22;2265;48.794;9.520;2022-11-15T14:51:13;14.60;98.00
4505;DHT22;2265;48.794;9.520;2022-11-15T14:53:41;14.50;98.00
4505;DHT22;2265;48.794;9.520;2022-11-15T14:56:10;14.50;98.00
4505;DHT22;2265;48.794;9.520;2022-11-15T14:58:38;14.40;98.00
4505;DHT22;2265;48.794;9.520;2022-11-15T15:01:13;14.40;98.00
4505;DHT22;2265;48.794;9.520;2022-11-15T15:03:40;14.30;98.00
4505;DHT22;2265;48.794;9.520;2022-11-15T15:06:09;14.30;98.00
4505;DHT22;2265;48.794;9.520;2022-11-15T15:08:38;14.30;98.00
4505;DHT22;2265;48.794;9.520;2022-11-15T15:11:11;14.30;98.00
4505;DHT22;2265;48.794;9.520;2022-11-15T15:13:40;14.30;98.00
4505;DHT22;2265;48.794;9.520;2022-11-15T15:16:07;14.20;98.00
4505;DHT22;2265;48.794;9.520;2022-11-15T15:18:34;14.10;98.00
4505;DHT22;2265;48.794;9.520;2022-11-15T15:21:02;14.00;98.00
4505;DHT22;2265;48.794;9.520;2022-11-15T15:23:32;14.00;98.00
4505;DHT22;2265;48.794;9.520;2022-11-15T15:28:37;13.80;98.00
4505;DHT22;2265;48.794;9.520;2022-11-15T15:31:05;13.70;98.00
4505;DHT22;2265;48.794;9.520;2022-11-15T15:33:32;13.60;98.00
4505;DHT22;2265;48.794;9.520;2022-11-15T15:35:59;13.60;98.00
4505;DHT22;2265;48.794;9.520;2022-11-15T15:38:27;13.50;98.00
4505;DHT22;2265;48.794;9.520;2022-11-15T15:40:54;13.50;98.00
4505;DHT22;2265;48.794;9.520;2022-11-15T15:43:21;13.50;98.00
4505;DHT22;2265;48.794;9.520;2022-11-15T15:45:49;13.40;98.00
4505;DHT22;2265;48.794;9.520;2022-11-15T15:48:17;13.40;98.00
4505;DHT22;2265;48.794;9.520;2022-11-15T15:50:44;13.30;98.00
4505;DHT22;2265;48.794;9.520;2022-11-15T15:53:12;13.20;98.00
4505;DHT22;2265;48.794;9.520;2022-11-15T15:55:40;13.20;98.00
4505;DHT22;2265;48.794;9.520;2022-11-15T15:58:08;13.20;98.00
4505;DHT22;2265;48.794;9.520;2022-11-15T16:00:35;13.20;98.00
4505;DHT22;2265;48.794;9.520;2022-11-15T16:03:04;13.20;98.00
4505;DHT22;2265;48.794;9.520;2022-11-15T16:05:31;13.10;98.00
4505;DHT22;2265;48.794;9.520;2022-11-15T16:07:58;13.10;98.00
4505;DHT22;2265;48.794;9.520;2022-11-15T16:10:27;13.00;98.00
4505;DHT22;2265;48.794;9.520;2022-11-15T16:12:56;12.90;98.00
4505;DHT22;2265;48.794;9.520;2022-11-15T16:15:25;12.80;98.00
4505;DHT22;2265;48.794;9.520;2022-11-15T16:17:53;12.80;98.00
4505;DHT22;2265;48.794;9.520;2022-11-15T16:20:33;12.80;98.00
4505;DHT22;2265;48.794;9.520;2022-11-15T16:23:00;12.80;98.00
4505;DHT22;2265;48.794;9.520;2022-11-15T16:25:27;12.70;98.00
4505;DHT22;2265;48.794;9.520;2022-11-15T16:27:55;12.70;98.00
4505;DHT22;2265;48.794;9.520;2022-11-15T16:30:22;12.60;98.00
4505;DHT22;2265;48.794;9.520;2022-11-15T16:32:49;12.60;98.00
4505;DHT22;2265;48.794;9.520;2022-11-15T16:35:17;12.70;98.00
4505;DHT22;2265;48.794;9.520;2022-11-15T16:37:46;12.80;98.00
4505;DHT22;2265;48.794;9.520;2022-11-15T16:40:26;12.90;98.00
4505;DHT22;2265;48.794;9.520;2022-11-15T16:42:53;13.00;98.00
4505;DHT22;2265;48.794;9.520;2022-11-15T16:45:22;13.00;98.00
4505;DHT22;2265;48.794;9.520;2022-11-15T16:47:49;13.10;98.00
4505;DHT22;2265;48.794;9.520;2022-11-15T16:50:19;13.10;98.00
4505;DHT22;2265;48.794;9.520;2022-11-15T16:52:50;13.20;98.00